Station: Charleville  

  Atmospheric Gas Attenuation - ITU Rec 676-11   ----------------- dB/100km -----------------
Date Time Temp RH % AH g/m3 Dew Point Wind Direction Speed kph Gust kph Barometer mB Rainfall Since 9am 24GHz 47GHz 76GHz 122GHz 134GHz 241GHz
08/05 12:30 17.4 24 3.56 -3.4 24 33 1023.5 0 8.8 18.1 20.9 53.8 36.7 122.2
08/05 12:20 17.5 25 3.73 -2.7 24 30 1023.9 0 9.2 18.3 21.4 55.2 38.5 128.3
08/05 12:10 16.7 25 3.55 -3.4 28 32 1024.1 0 8.8 18.3 21.1 54.3 37.0 122.9
08/05 12:00 16.6 25 3.53 -3.5 28 35 1024.1 0 8.8 18.3 21.0 54.1 36.8 122.3
08/05 11:50 16.4 26 3.63 -3.1 24 28 1024.5 0 9.0 18.4 21.4 55.2 37.9 126.4
08/05 11:40 17.2 26 3.81 -2.4 24 28 1024.8 0 9.4 18.5 21.8 56.2 39.5 131.9
08/05 11:30 16 28 3.81 -2.5 24 35 1024.7 0 9.4 18.8 22.1 57.0 40.1 133.8
08/05 11:20 16 28 3.81 -2.5 30 35 1025.1 0 9.4 18.8 22.1 57.0 40.1 133.8
08/05 11:10 16 29 3.95 -2 26 30 1025.1 0 9.7 18.9 22.6 58.2 41.6 139.1
08/05 11:00 15.3 29 3.79 -2.6 26 37 1025.3 0 9.4 18.9 22.2 57.3 40.2 134.2
08/05 10:50 15.2 30 3.89 -2.2 28 33 1025.4 0 9.6 19.0 22.6 58.3 41.3 138.2
08/05 10:40 15 31 3.98 -2 17 20 1025.5 0 9.8 19.2 22.9 59.2 42.4 142.0
08/05 10:30 14.5 31 3.86 -2.4 20 26 1025.8 0 9.5 19.2 22.7 58.5 41.4 138.2
08/05 10:20 14.5 32 3.98 -2 22 26 1026.1 0 9.8 19.3 23.1 59.6 42.7 142.9
08/05 10:10 13.9 33 3.96 -2.1 24 28 1026.3 0 9.8 19.4 23.2 59.9 42.8 143.2
08/05 10:00 13.8 33 3.93 -2.2 26 33 1026.1 0 9.7 19.4 23.1 59.7 42.5 142.2
08/05 09:50 13.5 34 3.98 -2 26 32 1026 0 9.8 19.5 23.4 60.4 43.2 144.6
08/05 09:40 12.9 34 3.83 -2.6 24 28 1026 0 9.5 19.4 23.0 59.4 41.9 139.8
08/05 09:30 12.7 35 3.9 -2.3 28 35 1026 0 9.7 19.6 23.3 60.2 42.8 142.9
08/05 09:20 12.5 35 3.85 -2.5 30 33 1026 0 9.6 19.6 23.2 59.9 42.3 141.3
08/05 09:10 12.3 37 4.02 -2 22 26 1025.9 0 9.9 19.8 23.9 61.6 44.3 148.3
08/05 09:00 11.7 39 4.08 -1.8 20 28 1025.9 0 10.1 20.0 24.2 62.6 45.3 151.8
08/05 08:50 11.4 40 4.11 -1.7 22 28 1025.9 0 10.1 20.2 24.4 63.1 45.9 153.6
08/05 08:40 10.8 42 4.15 -1.6 22 32 1025.8 0 10.2 20.3 24.7 64.0 46.7 156.3
08/05 08:30 10.2 43 4.09 -1.8 20 30 1025.6 0 10.1 20.4 24.7 63.9 46.3 155.0
08/05 08:20 10.1 44 4.16 -1.6 17 20 1025.6 0 10.3 20.5 25.0 64.6 47.2 158.1
08/05 08:10 9.4 48 4.34 -1 13 17 1025.6 0 10.7 20.9 25.8 66.9 49.7 167.0
08/05 08:00 8.6 51 4.38 -0.9 7 13 1025.6 0 10.8 21.2 26.2 67.9 50.7 170.3
08/05 07:50 8 53 4.38 -1 7 9 1025.5 0 10.8 21.3 26.4 68.4 51.1 171.6
08/05 07:40 7.2 57 4.48 -0.7 0 0 1025.7 0 11.1 21.6 27.1 70.1 52.8 177.6
08/05 07:30 6.5 62 4.65 -0.2 0 0 1025.5 0 11.4 22.1 27.9 72.5 55.4 186.6
08/05 07:20 5.3 65 4.51 -0.7 0 0 1025.3 0 11.2 22.1 27.8 72.1 54.5 183.1
08/05 07:10 5.3 63 4.37 -1.2 4 4 1025.2 0 10.9 21.9 27.3 70.7 52.7 176.9
08/05 07:00 4.9 64 4.32 -1.3 9 11 1025 0 10.8 21.9 27.2 70.5 52.3 175.5
08/05 06:50 4.7 64 4.27 -1.5 11 11 1024.9 0 10.7 21.9 27.1 70.2 51.8 173.7
08/05 06:40 4.9 63 4.26 -1.5 9 9 1024.8 0 10.7 21.8 27.0 69.9 51.6 172.9
08/05 06:30 5.3 61 4.23 -1.6 9 11 1024.8 0 10.6 21.7 26.7 69.2 50.9 170.7
08/05 06:20 5.5 60 4.22 -1.6 9 9 1024.5 0 10.6 21.6 26.6 68.9 50.7 169.8
08/05 06:10 5.6 59 4.17 -1.8 11 11 1024.4 0 10.4 21.5 26.4 68.3 50.0 167.4
08/05 06:00 6 58 4.21 -1.6 7 9 1024.6 0 10.5 21.5 26.4 68.4 50.2 168.3
08/05 05:50 6.2 57 4.19 -1.7 7 9 1024.4 0 10.5 21.4 26.3 68.0 49.8 167.0
08/05 05:40 6.5 55 4.13 -1.9 9 11 1024.2 0 10.3 21.2 25.9 67.1 48.9 163.7
08/05 05:30 6.8 54 4.13 -1.8 11 13 1024 0 10.3 21.1 25.8 66.9 48.7 163.1
08/05 05:20 7.1 53 4.14 -1.8 11 13 1024.1 0 10.3 21.1 25.8 66.7 48.7 162.9
08/05 05:10 7.3 52 4.11 -1.9 11 13 1024.1 0 10.3 21.0 25.6 66.3 48.2 161.3
08/05 05:00 7.7 51 4.14 -1.8 11 15 1023.9 0 10.3 20.9 25.6 66.2 48.3 161.7
08/05 04:50 8 49 4.05 -2 13 15 1023.9 0 10.1 20.7 25.2 65.1 47.0 157.3
08/05 04:40 8.3 48 4.05 -2 13 15 1023.8 0 10.1 20.7 25.1 64.8 46.8 156.7
08/05 04:30 8.6 48 4.13 -1.8 15 19 1023.5 0 10.3 20.7 25.3 65.4 47.6 159.5
08/05 04:20 8.8 47 4.09 -1.9 17 20 1023.5 0 10.2 20.6 25.1 64.8 47.0 157.4
08/05 04:10 9 46 4.06 -2 15 19 1023.5 0 10.1 20.5 24.9 64.4 46.5 155.8
08/05 04:00 9.2 46 4.11 -1.8 17 24 1023.4 0 10.2 20.5 25.0 64.7 47.0 157.4
08/05 03:50 9.4 45 4.07 -1.9 17 19 1023.4 0 10.1 20.4 24.8 64.1 46.4 155.4
08/05 03:40 9.4 45 4.07 -1.9 19 24 1023.2 0 10.1 20.4 24.8 64.1 46.4 155.4
08/05 03:30 9.7 44 4.06 -1.9 20 28 1023.1 0 10.1 20.4 24.7 63.8 46.1 154.4
08/05 03:20 9.7 44 4.06 -1.9 17 20 1023.1 0 10.1 20.4 24.7 63.8 46.1 154.4
08/05 03:10 9.9 43 4.02 -2.1 17 20 1023.1 0 10.0 20.3 24.5 63.2 45.5 152.4
08/05 03:00 9.9 44 4.11 -1.8 19 26 1023.1 0 10.2 20.4 24.8 64.1 46.6 156.0
08/05 02:50 9.9 44 4.11 -1.8 19 22 1023.2 0 10.2 20.4 24.8 64.1 46.6 156.1
08/05 02:40 9.8 44 4.08 -1.9 17 20 1023.2 0 10.1 20.4 24.7 63.9 46.3 155.0
08/05 02:30 9.8 44 4.08 -1.9 17 22 1023.2 0 10.1 20.4 24.7 63.9 46.3 155.0
08/05 02:20 10 44 4.14 -1.7 17 19 1023.5 0 10.2 20.4 24.9 64.3 46.9 157.1
08/05 02:10 10.2 45 4.28 -1.2 15 17 1023.4 0 10.5 20.6 25.3 65.5 48.4 162.5
08/05 02:00 10.3 45 4.31 -1.1 15 20 1023.3 0 10.6 20.6 25.4 65.7 48.7 163.5
08/05 01:50 10.3 46 4.41 -0.8 13 13 1023.6 0 10.8 20.7 25.7 66.7 49.9 167.7
08/05 01:40 10.6 45 4.39 -0.8 13 15 1023.5 0 10.8 20.6 25.6 66.2 49.5 166.3
08/05 01:30 10.9 45 4.48 -0.5 13 17 1023.3 0 10.9 20.7 25.8 66.8 50.3 169.3
08/05 01:20 10.9 45 4.48 -0.5 13 15 1023.4 0 10.9 20.7 25.8 66.8 50.3 169.3
08/05 01:10 11.2 45 4.56 -0.3 13 15 1023.2 0 11.1 20.7 26.0 67.3 51.1 172.0
08/05 01:00 11.5 45 4.65 0 15 20 1023.3 0 11.3 20.8 26.2 67.9 51.9 175.1
08/05 00:50 11.6 47 4.89 0.7 15 17 1023.1 0 11.8 21.1 27.0 70.1 54.7 184.8
08/05 00:40 11.7 50 5.23 1.6 17 20 1023.1 0 12.5 21.6 28.2 73.3 58.7 198.8
08/05 00:30 11.9 53 5.61 2.6 17 20 1023.1 0 13.3 22.1 29.5 76.8 63.1 214.4
08/05 00:20 11.8 56 5.89 3.3 15 17 1023.4 0 13.9 22.6 30.6 79.7 66.6 226.7
08/05 00:10 12 56 5.97 3.5 13 15 1023.7 0 14.1 22.6 30.8 80.3 67.5 229.7
08/05 00:00 12.2 55 5.94 3.4 15 20 1023.5 0 14.0 22.5 30.6 79.8 66.9 227.8
07/05 23:50 12.4 55 6.01 3.6 17 20 1023.5 0 14.1 22.6 30.8 80.3 67.6 230.2
07/05 23:40 12.2 57 6.15 3.9 20 26 1023.5 0 14.4 22.9 31.4 81.9 69.5 236.9
07/05 23:30 11.9 60 6.36 4.4 17 20 1023.4 0 14.9 23.3 32.3 84.3 72.4 246.9
07/05 23:20 12.2 60 6.48 4.7 17 20 1023.6 0 15.1 23.4 32.7 85.2 73.6 251.3
07/05 23:10 12.4 59 6.45 4.6 13 17 1023.5 0 15.1 23.3 32.5 84.7 73.0 249.3
07/05 23:00 12.5 59 6.49 4.7 19 26 1023.3 0 15.1 23.3 32.6 85.0 73.4 250.7
07/05 22:50 12.5 59 6.49 4.7 17 20 1023.2 0 15.1 23.3 32.6 85.0 73.4 250.7
07/05 22:40 12.2 60 6.48 4.7 15 17 1023.4 0 15.1 23.4 32.7 85.2 73.6 251.3
07/05 22:30 12.1 60 6.44 4.6 13 17 1023.2 0 15.1 23.3 32.5 84.9 73.2 249.8
07/05 22:20 12 59 6.29 4.2 15 17 1023.2 0 14.7 23.1 32.0 83.5 71.4 243.5
07/05 22:10 11.9 60 6.36 4.4 9 9 1023.2 0 14.9 23.2 32.3 84.3 72.4 246.9
07/05 22:00 11.6 62 6.45 4.6 9 13 1023.1 0 15.1 23.5 32.8 85.5 73.8 251.8
07/05 21:50 10.8 64 6.33 4.3 7 7 1022.9 0 14.9 23.5 32.6 85.1 73.0 248.9
07/05 21:40 10.7 64 6.29 4.2 7 7 1022.9 0 14.8 23.4 32.5 84.8 72.6 247.4
07/05 21:30 10.8 63 6.23 4 6 7 1022.9 0 14.7 23.3 32.3 84.1 71.7 244.4
07/05 21:20 11 63 6.31 4.2 7 7 1022.9 0 14.8 23.4 32.5 84.7 72.5 247.4
07/05 21:10 11.1 63 6.35 4.3 9 9 1022.8 0 14.9 23.4 32.6 85.0 72.9 248.8
07/05 21:00 11.3 61 6.22 4.1 7 9 1022.7 0 14.6 23.2 32.0 83.5 71.1 242.4
07/05 20:50 11.6 61 6.34 4.3 7 7 1022.7 0 14.9 23.3 32.3 84.4 72.4 246.8
07/05 20:40 12 58 6.18 4 9 9 1022.6 0 14.5 22.9 31.6 82.3 70.0 238.6
07/05 20:30 12.2 58 6.26 4.2 7 9 1022.5 0 14.7 23.0 31.8 82.9 70.8 241.4
07/05 20:20 12.4 56 6.12 3.9 7 7 1022.5 0 14.4 22.7 31.2 81.3 68.9 234.8
07/05 20:10 12.8 55 6.16 4 7 7 1022.4 0 14.4 22.7 31.2 81.3 69.0 235.3
07/05 20:00 13.4 53 6.16 4 6 7 1022.3 0 14.4 22.5 31.0 80.7 68.5 233.5

Last Refresh: 08-May-2026 12:08:31

Bureau of Meteorology